createdAt,value
2019-01-12T00:00:00.159Z,84.76
2019-01-12T00:02:30.282Z,86.31
2019-01-12T00:05:00.279Z,84.95
2019-01-12T00:07:36.563Z,84.37
2019-01-12T00:10:07.443Z,83.04
2019-01-12T00:12:37.482Z,83.08
2019-01-12T00:15:07.486Z,83.35
2019-01-12T00:17:38.579Z,83.18
2019-01-12T00:20:08.661Z,83.19
2019-01-12T00:22:38.608Z,82.95
2019-01-12T00:25:08.640Z,82.76
2019-01-12T00:27:38.439Z,82.05
2019-01-12T00:30:09.128Z,82.83
2019-01-12T00:32:39.101Z,81.41
2019-01-12T00:35:09.217Z,82.86
2019-01-12T00:37:39.122Z,83.21
2019-01-12T00:40:09.338Z,82.45
2019-01-12T00:42:39.303Z,82.85
2019-01-12T00:45:10.661Z,82.52
2019-01-12T00:47:40.563Z,83.04
2019-01-12T00:50:12.857Z,82.82
2019-01-12T00:52:42.849Z,83.62
2019-01-12T00:55:13.250Z,83.67
2019-01-12T00:57:43.311Z,82.19
2019-01-12T01:00:16.706Z,83.94
2019-01-12T01:02:46.694Z,83.86
2019-01-12T01:05:16.723Z,83.97
2019-01-12T01:07:46.729Z,83.47
2019-01-12T01:10:19.133Z,83.23
2019-01-12T01:12:49.140Z,83.93
2019-01-12T01:15:19.581Z,84.08
2019-01-12T01:17:49.558Z,83.93
2019-01-12T01:20:19.825Z,83.43
2019-01-12T01:22:49.804Z,83.06
2019-01-12T01:25:19.809Z,83.14
2019-01-12T01:27:49.831Z,83.29
2019-01-12T01:30:20.891Z,82.72
2019-01-12T01:32:50.904Z,82.68
2019-01-12T01:35:20.839Z,82.43
2019-01-12T01:37:50.793Z,82.46
2019-01-12T01:40:20.793Z,82.24
2019-01-12T01:42:50.757Z,82.38
2019-01-12T01:45:20.734Z,82.09
2019-01-12T01:47:50.684Z,82.38
2019-01-12T01:50:20.704Z,82.24
2019-01-12T01:52:50.752Z,81.77
2019-01-12T01:55:20.759Z,82.24
2019-01-12T01:57:50.759Z,82.47
2019-01-12T02:00:20.794Z,82.89
2019-01-12T02:02:50.704Z,83.05
2019-01-12T02:05:20.725Z,82.15
2019-01-12T02:07:50.559Z,80.41
2019-01-12T02:10:22.317Z,81.38
2019-01-12T02:12:52.304Z,81.18
2019-01-12T02:15:22.711Z,81.34
2019-01-12T02:17:54.353Z,80.87
2019-01-12T02:20:24.313Z,80.80
2019-01-12T02:22:54.138Z,80.85
2019-01-12T02:25:24.104Z,80.64
2019-01-12T02:27:54.056Z,80.45
2019-01-12T02:30:25.480Z,80.53
2019-01-12T02:32:55.771Z,80.99
2019-01-12T02:35:25.823Z,80.45
2019-01-12T02:37:55.636Z,80.96
2019-01-12T02:40:25.647Z,80.63
2019-01-12T02:42:55.649Z,80.22
2019-01-12T02:45:27.442Z,81.16
2019-01-12T02:47:57.420Z,80.60
2019-01-12T02:50:27.458Z,80.66
2019-01-12T02:52:57.404Z,80.80
2019-01-12T02:55:27.421Z,81.32
2019-01-12T02:57:57.283Z,81.62
2019-01-12T03:00:28.356Z,81.58
2019-01-12T03:02:58.455Z,81.75
2019-01-12T03:05:28.345Z,81.77
2019-01-12T03:07:58.278Z,81.90
2019-01-12T03:10:28.262Z,82.16
2019-01-12T03:12:59.359Z,81.42
2019-01-12T03:15:29.178Z,81.12
2019-01-12T03:17:59.198Z,81.13
2019-01-12T03:20:29.146Z,80.56
2019-01-12T03:22:58.967Z,79.98
2019-01-12T03:25:28.912Z,80.23
2019-01-12T03:28:00.444Z,80.01
2019-01-12T03:30:30.509Z,80.34
2019-01-12T03:33:00.345Z,80.60
2019-01-12T03:35:30.413Z,80.71
2019-01-12T03:38:00.241Z,79.65
2019-01-12T03:40:30.259Z,79.52
2019-01-12T03:43:00.202Z,80.34
2019-01-12T03:45:30.553Z,80.51
2019-01-12T03:48:00.571Z,80.41
2019-01-12T03:50:30.578Z,80.62
2019-01-12T03:53:00.508Z,80.49
2019-01-12T03:55:30.410Z,79.24
2019-01-12T03:58:00.465Z,80.27
2019-01-12T04:00:30.692Z,79.20
2019-01-12T04:03:00.686Z,80.03
2019-01-12T04:05:30.600Z,79.91
2019-01-12T04:08:00.637Z,79.92
2019-01-12T04:10:30.629Z,79.74
2019-01-12T04:13:00.533Z,79.08
2019-01-12T04:15:30.456Z,78.97
2019-01-12T04:18:01.492Z,79.43
2019-01-12T04:20:31.500Z,79.61
2019-01-12T04:23:01.420Z,79.39
2019-01-12T04:25:34.119Z,79.68
2019-01-12T04:28:03.391Z,79.58
2019-01-12T04:30:34.200Z,78.68
2019-01-12T04:33:04.166Z,79.17
2019-01-12T04:35:34.145Z,79.19
2019-01-12T04:38:04.131Z,79.13
2019-01-12T04:40:34.017Z,78.66
2019-01-12T04:43:03.933Z,78.88
2019-01-12T04:45:33.874Z,78.84
2019-01-12T04:48:03.793Z,78.94
2019-01-12T04:50:33.654Z,78.17
2019-01-12T04:53:03.568Z,78.95
2019-01-12T04:55:41.023Z,78.50
2019-01-12T04:58:05.056Z,79.17
2019-01-12T05:00:35.109Z,79.42
2019-01-12T05:03:05.076Z,79.59
2019-01-12T05:05:35.027Z,79.46
2019-01-12T05:08:05.141Z,79.18
2019-01-12T05:10:35.119Z,78.75
2019-01-12T05:13:05.077Z,78.52
2019-01-12T05:15:34.977Z,78.69
2019-01-12T05:18:05.086Z,79.17
2019-01-12T05:20:34.907Z,79.13
2019-01-12T05:23:04.757Z,78.93
2019-01-12T05:25:34.678Z,79.24
2019-01-12T05:28:04.584Z,79.00
2019-01-12T05:30:34.690Z,79.17
2019-01-12T05:33:04.667Z,79.52
2019-01-12T05:35:34.689Z,79.34
2019-01-12T05:38:05.666Z,79.69
2019-01-12T05:40:35.622Z,79.83
2019-01-12T05:43:05.600Z,79.23
2019-01-12T05:45:35.609Z,80.02
2019-01-12T05:48:05.799Z,79.88
2019-01-12T05:50:35.741Z,79.47
2019-01-12T05:53:05.704Z,79.92
2019-01-12T05:55:35.729Z,79.53
2019-01-12T05:58:05.734Z,79.45
2019-01-12T06:00:35.687Z,80.44
2019-01-12T06:03:05.815Z,80.03
2019-01-12T06:05:35.764Z,79.99
2019-01-12T06:08:05.756Z,80.27
2019-01-12T06:10:35.677Z,81.12
2019-01-12T06:13:05.718Z,81.82
2019-01-12T06:15:35.609Z,82.35
2019-01-12T06:18:05.663Z,82.28
2019-01-12T06:20:35.550Z,82.66
2019-01-12T06:23:05.602Z,83.10
2019-01-12T06:25:35.496Z,82.47
2019-01-12T06:28:05.498Z,82.28
2019-01-12T06:30:35.459Z,81.53
2019-01-12T06:33:05.468Z,82.57
2019-01-12T06:35:35.488Z,82.79
2019-01-12T06:38:05.531Z,83.02
2019-01-12T06:40:35.411Z,82.33
2019-01-12T06:43:05.311Z,82.78
2019-01-12T06:45:35.336Z,81.75
2019-01-12T06:48:05.318Z,81.61
2019-01-12T06:50:35.182Z,81.68
2019-01-12T06:53:05.193Z,81.95
2019-01-12T06:55:35.105Z,82.26
2019-01-12T06:58:05.225Z,82.46
2019-01-12T07:00:35.217Z,83.60
2019-01-12T07:03:05.339Z,82.98
2019-01-12T07:05:35.253Z,82.44
2019-01-12T07:08:05.317Z,82.92
2019-01-12T07:10:35.162Z,83.93
2019-01-12T07:13:05.098Z,83.93
2019-01-12T07:15:35.042Z,83.13
2019-01-12T07:18:08.900Z,83.58
2019-01-12T07:20:36.887Z,83.49
2019-01-12T07:23:06.912Z,83.34
2019-01-12T07:25:36.782Z,83.25
2019-01-12T07:28:06.668Z,82.67
2019-01-12T07:30:36.707Z,82.95
2019-01-12T07:33:06.751Z,82.96
2019-01-12T07:35:36.767Z,82.68
2019-01-12T07:38:06.769Z,81.94
2019-01-12T07:40:36.776Z,82.78
2019-01-12T07:43:06.799Z,82.12
2019-01-12T07:45:36.771Z,83.19
2019-01-12T07:48:06.789Z,83.61
2019-01-12T07:50:36.610Z,83.80
2019-01-12T07:53:06.582Z,83.66
2019-01-12T07:55:36.476Z,83.79
2019-01-12T07:58:06.420Z,84.18
2019-01-12T08:00:36.406Z,83.63
2019-01-12T08:03:06.493Z,83.34
2019-01-12T08:05:36.366Z,83.87
2019-01-12T08:08:06.378Z,84.23
2019-01-12T08:10:36.363Z,83.41
2019-01-12T08:13:06.357Z,83.91
2019-01-12T08:15:36.374Z,84.65
2019-01-12T08:18:06.362Z,84.31
2019-01-12T08:20:36.292Z,84.48
2019-01-12T08:23:06.269Z,83.77
2019-01-12T08:25:36.243Z,83.83
2019-01-12T08:28:06.162Z,83.11
2019-01-12T08:30:36.030Z,82.15
2019-01-12T08:33:06.063Z,82.04
2019-01-12T08:35:36.020Z,82.49
2019-01-12T08:38:05.995Z,81.02
2019-01-12T08:40:35.938Z,80.94
2019-01-12T08:43:06.840Z,80.82
2019-01-12T08:45:36.727Z,81.86
2019-01-12T08:48:06.791Z,81.23
2019-01-12T08:50:36.708Z,81.29
2019-01-12T08:53:06.769Z,80.98
2019-01-12T08:55:36.682Z,81.22
2019-01-12T08:58:06.626Z,80.77
2019-01-12T09:00:36.715Z,81.26
2019-01-12T09:03:06.671Z,81.70
2019-01-12T09:05:36.694Z,80.94
2019-01-12T09:08:06.720Z,79.76
2019-01-12T09:10:36.645Z,80.02
2019-01-12T09:13:06.639Z,81.13
2019-01-12T09:15:36.621Z,81.09
2019-01-12T09:18:06.514Z,82.39
2019-01-12T09:20:36.469Z,82.29
2019-01-12T09:23:06.446Z,82.09
2019-01-12T09:25:36.402Z,82.08
2019-01-12T09:28:06.345Z,82.67
2019-01-12T09:30:36.396Z,82.24
2019-01-12T09:33:06.366Z,82.61
2019-01-12T09:35:36.419Z,82.81
2019-01-12T09:38:06.392Z,82.40
2019-01-12T09:40:36.405Z,81.06
2019-01-12T09:43:06.473Z,80.95
2019-01-12T09:45:36.384Z,80.53
2019-01-12T09:48:06.614Z,80.48
2019-01-12T09:50:36.599Z,80.38
2019-01-12T09:53:06.779Z,81.06
2019-01-12T09:55:37.780Z,81.41
2019-01-12T09:58:07.830Z,81.24
2019-01-12T10:00:37.787Z,81.68
2019-01-12T10:03:07.818Z,80.88
2019-01-12T10:05:40.143Z,80.62
2019-01-12T10:08:10.108Z,80.07
2019-01-12T10:10:40.096Z,79.75
2019-01-12T10:13:10.028Z,81.25
2019-01-12T10:15:40.077Z,81.25
2019-01-12T10:18:10.008Z,80.44
2019-01-12T10:20:40.021Z,80.95
2019-01-12T10:23:09.939Z,80.79
2019-01-12T10:25:39.946Z,80.44
2019-01-12T10:28:09.955Z,80.36
2019-01-12T10:30:39.988Z,81.15
2019-01-12T10:33:10.022Z,81.21
2019-01-12T10:35:40.038Z,81.26
2019-01-12T10:38:10.014Z,80.09
2019-01-12T10:40:40.077Z,81.25
2019-01-12T10:43:09.976Z,81.48
2019-01-12T10:45:39.922Z,81.52
2019-01-12T10:48:09.872Z,81.50
2019-01-12T10:50:40.079Z,80.89
2019-01-12T10:53:10.081Z,80.51
2019-01-12T10:55:40.069Z,80.70
2019-01-12T10:58:11.034Z,80.56
2019-01-12T11:00:41.388Z,80.45
2019-01-12T11:03:11.519Z,79.79
2019-01-12T11:05:41.622Z,79.71
2019-01-12T11:08:11.669Z,79.65
2019-01-12T11:10:42.120Z,79.49
2019-01-12T11:13:12.215Z,78.49
2019-01-12T11:15:42.260Z,78.13
2019-01-12T11:18:12.329Z,79.03
2019-01-12T11:20:42.372Z,78.78
2019-01-12T11:23:12.508Z,78.38
2019-01-12T11:25:43.229Z,78.69
2019-01-12T11:28:13.318Z,78.91
2019-01-12T11:30:43.239Z,78.26
2019-01-12T11:33:13.354Z,77.69
2019-01-12T11:35:43.214Z,76.67
2019-01-12T11:38:13.240Z,76.26
2019-01-12T11:40:43.189Z,77.29
2019-01-12T11:43:13.185Z,77.34
2019-01-12T11:45:43.235Z,75.56
2019-01-12T11:48:13.214Z,75.44
2019-01-12T11:50:43.154Z,76.01
2019-01-12T11:53:13.102Z,75.29
2019-01-12T11:55:43.167Z,74.32
2019-01-12T11:58:13.147Z,75.40
2019-01-12T12:00:43.177Z,75.57
2019-01-12T12:03:13.557Z,75.64
2019-01-12T12:05:43.487Z,75.90
2019-01-12T12:08:13.519Z,75.21
2019-01-12T12:10:43.441Z,75.69
2019-01-12T12:13:13.413Z,75.93
2019-01-12T12:15:43.385Z,75.57
2019-01-12T12:18:13.392Z,74.24
2019-01-12T12:20:43.365Z,73.79
2019-01-12T12:23:13.402Z,71.86
2019-01-12T12:25:43.322Z,72.97
2019-01-12T12:28:13.368Z,73.62
2019-01-12T12:30:43.336Z,72.91
2019-01-12T12:33:13.542Z,75.10
2019-01-12T12:35:43.577Z,74.21
2019-01-12T12:38:13.505Z,74.05
2019-01-12T12:40:43.585Z,75.24
2019-01-12T12:43:13.548Z,75.88
2019-01-12T12:45:43.565Z,75.26
2019-01-12T12:48:13.551Z,74.94
2019-01-12T12:50:43.777Z,75.30
2019-01-12T12:53:13.758Z,74.87
2019-01-12T12:55:43.708Z,74.37
2019-01-12T12:58:13.675Z,74.42
2019-01-12T13:00:43.697Z,74.19
2019-01-12T13:03:13.565Z,73.60
2019-01-12T13:05:43.478Z,73.71
2019-01-12T13:08:19.787Z,75.11
2019-01-12T13:10:49.748Z,75.22
2019-01-12T13:13:19.706Z,75.09
2019-01-12T13:15:49.974Z,75.51
2019-01-12T13:18:21.089Z,75.23
2019-01-12T13:20:51.109Z,75.94
2019-01-12T13:23:21.117Z,75.58
2019-01-12T13:25:51.094Z,74.59
2019-01-12T13:28:21.034Z,75.39
2019-01-12T13:30:50.954Z,76.43
2019-01-12T13:33:21.055Z,75.63
2019-01-12T13:35:50.957Z,75.14
2019-01-12T13:38:20.831Z,74.56
2019-01-12T13:40:50.736Z,74.61
2019-01-12T13:43:20.592Z,75.22
2019-01-12T13:45:50.549Z,75.79
2019-01-12T13:48:20.553Z,75.31
2019-01-12T13:50:50.584Z,75.91
2019-01-12T13:53:20.489Z,76.05
2019-01-12T13:55:50.529Z,76.87
2019-01-12T13:58:20.537Z,76.75
2019-01-12T14:00:50.502Z,76.45
2019-01-12T14:03:20.450Z,76.45
2019-01-12T14:05:50.458Z,77.33
2019-01-12T14:08:26.330Z,77.53
2019-01-12T14:10:56.216Z,77.10
2019-01-12T14:13:26.173Z,77.50
2019-01-12T14:15:56.082Z,77.58
2019-01-12T14:18:26.136Z,77.93
2019-01-12T14:20:56.123Z,77.90
2019-01-12T14:23:26.181Z,77.75
2019-01-12T14:25:56.088Z,78.15
2019-01-12T14:28:26.103Z,78.09
2019-01-12T14:30:56.067Z,78.14
2019-01-12T14:33:26.045Z,78.32
2019-01-12T14:35:55.975Z,77.97
2019-01-12T14:38:25.972Z,77.90
2019-01-12T14:40:55.981Z,77.41
2019-01-12T14:43:25.885Z,77.67
2019-01-12T14:45:55.835Z,77.17
2019-01-12T14:48:25.693Z,77.52
2019-01-12T14:50:55.699Z,77.36
2019-01-12T14:53:25.616Z,77.24
2019-01-12T14:55:55.635Z,77.70
2019-01-12T14:58:25.658Z,77.54
2019-01-12T15:00:55.673Z,78.08
2019-01-12T15:03:25.644Z,78.07
2019-01-12T15:05:55.652Z,77.73
2019-01-12T15:08:25.651Z,78.25
2019-01-12T15:10:55.647Z,78.19
2019-01-12T15:13:25.795Z,78.88
2019-01-12T15:15:55.846Z,78.59
2019-01-12T15:18:25.844Z,78.72
2019-01-12T15:20:55.890Z,79.37
2019-01-12T15:23:25.981Z,79.92
2019-01-12T15:25:55.940Z,80.04
2019-01-12T15:28:25.986Z,80.01
2019-01-12T15:30:56.006Z,80.58
2019-01-12T15:33:26.013Z,80.93
2019-01-12T15:35:56.295Z,80.81
2019-01-12T15:38:26.203Z,80.40
2019-01-12T15:40:56.290Z,80.14
2019-01-12T15:43:27.810Z,80.22
2019-01-12T15:45:57.875Z,80.15
2019-01-12T15:48:27.943Z,79.91
2019-01-12T15:50:57.982Z,80.47
2019-01-12T15:53:27.912Z,80.04
2019-01-12T15:55:57.850Z,79.87
2019-01-12T15:58:27.765Z,79.72
2019-01-12T16:00:57.727Z,80.00
2019-01-12T16:03:29.346Z,79.79
2019-01-12T16:05:59.342Z,79.86
2019-01-12T16:08:29.302Z,79.67
2019-01-12T16:11:00.073Z,79.57
2019-01-12T16:13:31.124Z,79.21
2019-01-12T16:16:02.224Z,78.75
2019-01-12T16:18:32.130Z,78.59
2019-01-12T16:21:02.287Z,78.46
2019-01-12T16:23:32.178Z,77.99
2019-01-12T16:26:02.322Z,78.31
2019-01-12T16:28:32.248Z,77.97
2019-01-12T16:31:02.211Z,77.81
2019-01-12T16:33:32.988Z,78.05
2019-01-12T16:36:02.935Z,77.89
2019-01-12T16:38:32.853Z,77.54
2019-01-12T16:41:02.800Z,77.53
2019-01-12T16:43:32.685Z,77.32
2019-01-12T16:46:02.839Z,77.83
2019-01-12T16:48:32.683Z,77.52
2019-01-12T16:51:02.577Z,77.16
2019-01-12T16:53:32.534Z,77.65
2019-01-12T16:56:02.522Z,77.54
2019-01-12T16:58:32.491Z,77.10
2019-01-12T17:01:02.487Z,76.97
2019-01-12T17:03:32.523Z,77.00
2019-01-12T17:06:02.359Z,76.57
2019-01-12T17:08:33.109Z,76.58
2019-01-12T17:11:03.080Z,76.55
2019-01-12T17:13:33.027Z,76.31
2019-01-12T17:16:02.991Z,76.05
2019-01-12T17:18:32.899Z,75.71
2019-01-12T17:21:02.860Z,75.38
2019-01-12T17:23:32.800Z,75.20
2019-01-12T17:26:02.750Z,75.50
2019-01-12T17:28:37.301Z,74.41
2019-01-12T17:31:04.496Z,74.73
2019-01-12T17:33:34.463Z,73.61
2019-01-12T17:36:05.740Z,73.41
2019-01-12T17:38:35.658Z,73.37
2019-01-12T17:41:05.665Z,73.14
2019-01-12T17:43:35.568Z,72.12
2019-01-12T17:46:05.606Z,72.11
2019-01-12T17:48:35.589Z,71.59
2019-01-12T17:51:05.849Z,71.01
2019-01-12T17:53:35.740Z,71.24
2019-01-12T17:56:06.040Z,71.34
2019-01-12T17:58:36.025Z,71.58
2019-01-12T18:01:07.016Z,71.95
2019-01-12T18:03:36.969Z,71.97
2019-01-12T18:06:07.038Z,71.48
2019-01-12T18:08:36.941Z,70.97
2019-01-12T18:11:06.762Z,71.04
2019-01-12T18:13:36.765Z,71.13
2019-01-12T18:16:06.769Z,71.38
2019-01-12T18:18:36.917Z,70.84
2019-01-12T18:21:07.202Z,70.59
2019-01-12T18:23:37.212Z,70.59
2019-01-12T18:26:07.217Z,70.61
2019-01-12T18:28:37.294Z,71.70
2019-01-12T18:31:07.316Z,72.50
2019-01-12T18:33:37.332Z,73.68
2019-01-12T18:36:07.271Z,74.49
2019-01-12T18:38:37.224Z,74.80
2019-01-12T18:41:07.161Z,76.25
2019-01-12T18:43:37.187Z,77.20
2019-01-12T18:46:12.049Z,77.83
2019-01-12T18:48:38.723Z,79.37
2019-01-12T18:51:08.650Z,80.81
2019-01-12T18:53:38.647Z,81.99
2019-01-12T18:56:08.549Z,82.86
2019-01-12T18:58:38.476Z,84.20
2019-01-12T19:01:08.888Z,81.72
2019-01-12T19:03:40.341Z,84.49
2019-01-12T19:06:10.482Z,85.29
2019-01-12T19:08:40.340Z,85.64
2019-01-12T19:11:10.493Z,85.78
2019-01-12T19:13:41.509Z,86.15
2019-01-12T19:16:12.755Z,86.06
2019-01-12T19:18:42.778Z,86.33
2019-01-12T19:21:12.860Z,86.50
2019-01-12T19:23:44.000Z,86.05
2019-01-12T19:26:13.941Z,85.86
2019-01-12T19:28:43.876Z,85.72
2019-01-12T19:31:13.973Z,85.89
2019-01-12T19:33:44.161Z,85.89
2019-01-12T19:36:14.050Z,86.53
2019-01-12T19:38:44.101Z,87.04
2019-01-12T19:41:14.074Z,86.71
2019-01-12T19:43:44.091Z,87.02
2019-01-12T19:46:14.062Z,87.34
2019-01-12T19:48:44.029Z,87.45
2019-01-12T19:51:13.989Z,88.01
2019-01-12T19:53:43.833Z,88.14
2019-01-12T19:56:14.996Z,87.98
2019-01-12T19:58:44.960Z,88.33
2019-01-12T20:01:14.827Z,88.50
2019-01-12T20:03:44.733Z,86.49
2019-01-12T20:06:17.235Z,87.63
2019-01-12T20:08:46.584Z,88.43
2019-01-12T20:11:16.649Z,88.63
2019-01-12T20:13:46.600Z,88.69
2019-01-12T20:16:17.511Z,88.74
2019-01-12T20:18:47.559Z,88.90
2019-01-12T20:21:17.426Z,89.23
2019-01-12T20:23:47.432Z,89.15
2019-01-12T20:26:17.404Z,89.14
2019-01-12T20:28:47.747Z,89.04
2019-01-12T20:31:56.761Z,87.69
2019-01-12T20:34:47.108Z,84.08
2019-01-12T20:38:05.949Z,81.81
2019-01-12T20:40:48.923Z,81.89
2019-01-12T20:43:59.269Z,81.73
2019-01-12T20:47:25.548Z,84.60
2019-01-12T20:50:23.922Z,83.42
2019-01-12T20:53:28.286Z,84.19
2019-01-12T20:56:38.362Z,83.67
2019-01-12T20:59:58.613Z,83.22
2019-01-12T21:03:15.069Z,81.55
2019-01-12T21:05:57.793Z,82.03
2019-01-12T21:08:51.142Z,82.22
2019-01-12T21:12:10.347Z,81.05
2019-01-12T21:15:10.279Z,81.59
2019-01-12T21:17:40.613Z,82.13
2019-01-12T21:20:11.391Z,84.63
2019-01-12T21:22:41.362Z,82.88
2019-01-12T21:25:11.452Z,84.41
2019-01-12T21:27:41.390Z,84.26
2019-01-12T21:30:14.195Z,84.29
2019-01-12T21:32:44.178Z,83.71
2019-01-12T21:35:14.260Z,84.26
2019-01-12T21:37:44.338Z,83.14
2019-01-12T21:40:14.327Z,81.23
2019-01-12T21:42:44.498Z,81.80
2019-01-12T21:45:14.960Z,81.39
2019-01-12T21:47:45.000Z,83.56
2019-01-12T21:50:15.697Z,84.42
2019-01-12T21:52:45.833Z,82.55
2019-01-12T21:55:15.829Z,84.71
2019-01-12T21:57:45.877Z,83.80
2019-01-12T22:00:16.996Z,83.25
2019-01-12T22:02:47.003Z,84.24
2019-01-12T22:05:17.014Z,84.15
2019-01-12T22:07:46.957Z,84.34
2019-01-12T22:10:19.173Z,84.23
2019-01-12T22:12:48.708Z,83.70
2019-01-12T22:15:18.819Z,83.44
2019-01-12T22:17:48.764Z,83.91
2019-01-12T22:20:18.848Z,83.13
2019-01-12T22:22:49.140Z,83.31
2019-01-12T22:25:19.289Z,83.39
2019-01-12T22:27:49.297Z,83.93
2019-01-12T22:30:20.216Z,82.72
2019-01-12T22:32:51.088Z,83.48
2019-01-12T22:35:21.179Z,83.74
2019-01-12T22:37:51.324Z,84.33
2019-01-12T22:40:22.958Z,84.23
2019-01-12T22:42:52.779Z,83.40
2019-01-12T22:45:22.804Z,83.75
2019-01-12T22:47:52.728Z,84.19
2019-01-12T22:50:22.665Z,83.79
2019-01-12T22:52:52.599Z,87.03
2019-01-12T22:55:22.535Z,87.24
2019-01-12T22:57:52.993Z,87.62
2019-01-12T23:00:44.025Z,87.69
2019-01-12T23:03:14.530Z,87.12
2019-01-12T23:05:44.672Z,86.17
2019-01-12T23:08:14.698Z,87.10
2019-01-12T23:10:44.605Z,86.97
2019-01-12T23:13:14.685Z,87.20
2019-01-12T23:15:44.736Z,86.97
2019-01-12T23:18:14.952Z,86.74
2019-01-12T23:20:44.912Z,86.51
2019-01-12T23:23:14.955Z,86.84
2019-01-12T23:25:44.858Z,86.71
2019-01-12T23:28:14.860Z,86.52
2019-01-12T23:30:44.872Z,85.28
2019-01-12T23:33:14.901Z,82.70
2019-01-12T23:35:44.880Z,83.46
2019-01-12T23:38:15.049Z,83.16
2019-01-12T23:40:44.993Z,82.52
2019-01-12T23:43:14.975Z,82.62
2019-01-12T23:45:44.996Z,83.45
2019-01-12T23:48:14.892Z,84.28
2019-01-12T23:50:44.834Z,84.44
2019-01-12T23:53:14.748Z,85.23
2019-01-12T23:55:44.626Z,84.35
2019-01-12T23:58:14.516Z,82.83
